createdAt,value
2022-09-13T00:01:13.410Z,14.53
2022-09-13T00:03:41.908Z,13.57
2022-09-13T00:06:14.125Z,13.33
2022-09-13T00:08:43.190Z,15.30
2022-09-13T00:11:18.345Z,14.47
2022-09-13T00:13:46.959Z,14.23
2022-09-13T00:16:17.374Z,13.57
2022-09-13T00:18:46.286Z,13.40
2022-09-13T00:21:17.508Z,12.90
2022-09-13T00:23:47.089Z,16.53
2022-09-13T00:26:18.730Z,12.40
2022-09-13T00:28:50.529Z,11.17
2022-09-13T00:31:19.396Z,14.43
2022-09-13T00:33:48.437Z,15.17
2022-09-13T00:36:18.419Z,15.67
2022-09-13T00:38:47.040Z,15.20
2022-09-13T00:41:17.833Z,13.23
2022-09-13T00:43:49.718Z,13.97
2022-09-13T00:46:23.853Z,23.33
2022-09-13T00:48:56.234Z,14.10
2022-09-13T00:51:26.704Z,17.83
2022-09-13T00:53:59.561Z,16.97
2022-09-13T00:56:33.393Z,16.10
2022-09-13T00:59:06.572Z,13.90
2022-09-13T01:01:42.932Z,16.63
2022-09-13T01:04:13.003Z,15.10
2022-09-13T01:06:43.663Z,19.33
2022-09-13T01:09:13.994Z,12.47
2022-09-13T01:11:49.172Z,13.30
2022-09-13T01:14:19.213Z,12.70
2022-09-13T01:16:48.199Z,12.27
2022-09-13T01:19:17.121Z,12.90
2022-09-13T01:22:25.013Z,16.40
2022-09-13T01:25:18.210Z,13.90
2022-09-13T01:28:11.748Z,10.60
2022-09-13T01:30:44.369Z,13.90
2022-09-13T01:33:32.122Z,15.67
2022-09-13T01:36:35.982Z,12.93
2022-09-13T01:39:07.272Z,13.40
2022-09-13T01:42:01.579Z,17.53
2022-09-13T01:44:40.625Z,15.73
2022-09-13T01:47:23.953Z,12.60
2022-09-13T01:50:05.652Z,14.90
2022-09-13T01:52:42.752Z,18.30
2022-09-13T01:55:20.096Z,14.50
2022-09-13T01:57:55.093Z,12.53
2022-09-13T02:00:23.665Z,16.07
2022-09-13T02:02:59.530Z,15.13
2022-09-13T02:05:34.985Z,20.93
2022-09-13T02:08:09.740Z,33.43
2022-09-13T02:10:43.637Z,13.30
2022-09-13T02:13:18.207Z,13.43
2022-09-13T02:15:50.099Z,13.10
2022-09-13T02:18:26.113Z,11.80
2022-09-13T02:20:58.637Z,13.50
2022-09-13T02:23:33.521Z,15.50
2022-09-13T02:26:04.455Z,19.63
2022-09-13T02:28:36.784Z,13.30
2022-09-13T02:31:09.076Z,14.10
2022-09-13T02:33:44.761Z,18.40
2022-09-13T02:36:16.500Z,13.93
2022-09-13T02:38:48.811Z,16.50
2022-09-13T02:41:27.823Z,17.03
2022-09-13T02:44:02.358Z,14.70
2022-09-13T02:46:55.422Z,13.27
2022-09-13T02:49:31.729Z,12.50
2022-09-13T02:52:09.191Z,12.80
2022-09-13T02:54:43.779Z,14.10
2022-09-13T02:57:16.683Z,31.73
2022-09-13T02:59:46.883Z,20.80
2022-09-13T03:02:18.101Z,13.33
2022-09-13T03:04:50.695Z,99.27
2022-09-13T03:07:19.556Z,34.93
2022-09-13T03:09:51.403Z,22.90
2022-09-13T03:12:34.961Z,28.40
2022-09-13T03:15:18.133Z,19.63
2022-09-13T03:17:55.851Z,12.53
2022-09-13T03:20:38.026Z,31.87
2022-09-13T03:23:20.833Z,38.30
2022-09-13T03:26:08.680Z,21.70
2022-09-13T03:28:49.326Z,22.10
2022-09-13T03:31:28.760Z,16.60
2022-09-13T03:34:04.363Z,13.97
2022-09-13T03:36:38.776Z,18.53
2022-09-13T03:39:15.346Z,16.77
2022-09-13T03:41:48.130Z,22.47
2022-09-13T03:44:20.056Z,20.03
2022-09-13T03:46:50.988Z,42.20
2022-09-13T03:49:22.972Z,20.77
2022-09-13T03:51:53.875Z,13.47
2022-09-13T03:54:25.203Z,14.03
2022-09-13T03:57:15.228Z,16.90
2022-09-13T03:59:47.084Z,21.90
2022-09-13T04:02:16.320Z,18.77
2022-09-13T04:04:45.797Z,22.20
2022-09-13T04:07:18.234Z,30.80
2022-09-13T04:09:46.932Z,10.93
2022-09-13T04:12:15.493Z,41.00
2022-09-13T04:14:44.313Z,12.97
2022-09-13T04:17:13.449Z,35.87
2022-09-13T04:19:42.402Z,23.90
2022-09-13T04:22:10.869Z,45.77
2022-09-13T04:24:40.725Z,29.07
2022-09-13T04:27:09.276Z,23.63
2022-09-13T04:29:37.887Z,22.77
2022-09-13T04:32:06.810Z,51.40
2022-09-13T04:34:35.309Z,61.23
2022-09-13T04:37:03.977Z,45.60
2022-09-13T04:39:32.493Z,43.70
2022-09-13T04:42:02.442Z,38.10
2022-09-13T04:44:31.663Z,21.00
2022-09-13T04:47:00.200Z,63.00
2022-09-13T04:49:28.661Z,149.47
2022-09-13T04:51:57.179Z,54.40
2022-09-13T04:54:25.656Z,14.40
2022-09-13T04:56:54.629Z,17.30
2022-09-13T04:59:24.637Z,16.37
2022-09-13T05:01:53.096Z,77.37
2022-09-13T05:04:21.543Z,76.40
2022-09-13T05:06:49.966Z,28.23
2022-09-13T05:09:18.653Z,30.67
2022-09-13T05:11:47.107Z,12.70
2022-09-13T05:14:15.666Z,102.20
2022-09-13T05:16:45.549Z,68.27
2022-09-13T05:19:14.362Z,68.87
2022-09-13T05:21:42.820Z,68.37
2022-09-13T05:24:11.881Z,63.00
2022-09-13T05:26:40.349Z,39.27
2022-09-13T05:29:09.027Z,24.13
2022-09-13T05:31:39.803Z,105.63
2022-09-13T05:34:11.655Z,71.00
2022-09-13T05:36:40.445Z,46.60
2022-09-13T05:39:29.523Z,40.63
2022-09-13T05:42:01.576Z,31.57
2022-09-13T05:44:30.053Z,24.60
2022-09-13T05:46:58.884Z,35.17
2022-09-13T05:49:28.787Z,41.53
2022-09-13T05:51:57.240Z,37.67
2022-09-13T05:54:25.854Z,15.77
2022-09-13T05:56:57.466Z,24.20
2022-09-13T05:59:25.955Z,27.77
2022-09-13T06:01:54.424Z,12.40
2022-09-13T06:04:23.020Z,36.13
2022-09-13T06:06:52.843Z,14.93
2022-09-13T06:09:21.341Z,61.30
2022-09-13T06:11:49.836Z,21.53
2022-09-13T06:14:18.622Z,15.13
2022-09-13T06:16:47.103Z,17.57
2022-09-13T06:19:15.572Z,7.40
2022-09-13T06:21:44.373Z,11.43
2022-09-13T06:24:14.876Z,9.50
2022-09-13T06:26:43.393Z,60.23
2022-09-13T06:29:13.436Z,147.00
2022-09-13T06:31:44.696Z,54.73
2022-09-13T06:34:15.549Z,30.13
2022-09-13T06:36:44.099Z,57.93
2022-09-13T06:39:14.068Z,29.87
2022-09-13T06:41:42.599Z,17.63
2022-09-13T06:44:11.389Z,20.33
2022-09-13T06:46:39.896Z,15.93
2022-09-13T06:49:09.221Z,29.80
2022-09-13T06:51:38.040Z,12.37
2022-09-13T06:54:06.626Z,22.30
2022-09-13T06:56:38.323Z,8.93
2022-09-13T06:59:08.711Z,24.07
2022-09-13T07:01:38.921Z,44.30
2022-09-13T07:04:09.220Z,15.50
2022-09-13T07:06:40.033Z,13.90
2022-09-13T07:09:11.743Z,22.63
2022-09-13T07:11:42.959Z,12.60
2022-09-13T07:14:15.823Z,7.30
2022-09-13T07:16:46.070Z,20.17
2022-09-13T07:19:16.761Z,64.30
2022-09-13T07:21:45.520Z,29.20
2022-09-13T07:24:14.089Z,18.23
2022-09-13T07:26:44.210Z,12.60
2022-09-13T07:29:14.902Z,21.37
2022-09-13T07:31:45.758Z,50.00
2022-09-13T07:34:16.435Z,16.33
2022-09-13T07:36:46.829Z,15.20
2022-09-13T07:39:20.296Z,18.53
2022-09-13T07:41:53.599Z,11.37
2022-09-13T07:44:22.851Z,10.37
2022-09-13T07:46:51.369Z,9.33
2022-09-13T07:49:21.376Z,10.57
2022-09-13T07:51:51.511Z,12.57
2022-09-13T07:54:20.895Z,12.10
2022-09-13T07:56:51.831Z,10.87
2022-09-13T07:59:20.832Z,20.30
2022-09-13T08:01:50.805Z,14.83
2022-09-13T08:04:21.285Z,10.60
2022-09-13T08:06:49.995Z,9.60
2022-09-13T08:09:19.006Z,9.47
2022-09-13T08:11:49.771Z,16.17
2022-09-13T08:14:21.729Z,8.77
2022-09-13T08:16:50.231Z,9.27
2022-09-13T08:19:20.450Z,8.10
2022-09-13T08:21:49.229Z,8.57
2022-09-13T08:24:19.488Z,11.50
2022-09-13T08:26:48.657Z,11.40
2022-09-13T08:29:18.772Z,8.60
2022-09-13T08:31:47.429Z,13.63
2022-09-13T08:34:18.076Z,9.03
2022-09-13T08:36:46.812Z,11.73
2022-09-13T08:39:15.393Z,9.80
2022-09-13T08:42:25.913Z,13.50
2022-09-13T08:44:57.645Z,12.10
2022-09-13T08:47:36.926Z,9.60
2022-09-13T08:50:15.528Z,7.90
2022-09-13T08:52:55.807Z,7.03
2022-09-13T08:55:35.608Z,6.50
2022-09-13T08:58:30.565Z,11.00
2022-09-13T09:01:08.631Z,10.43
2022-09-13T09:03:44.499Z,8.00
2022-09-13T09:06:16.626Z,9.67
2022-09-13T09:08:49.407Z,12.93
2022-09-13T09:11:30.015Z,8.43
2022-09-13T09:14:07.110Z,6.83
2022-09-13T09:16:41.759Z,5.50
2022-09-13T09:19:19.361Z,8.70
2022-09-13T09:21:50.491Z,10.43
2022-09-13T09:24:22.871Z,7.17
2022-09-13T09:26:51.574Z,6.63
2022-09-13T09:29:25.117Z,6.83
2022-09-13T09:32:11.443Z,18.40
2022-09-13T09:34:51.781Z,8.90
2022-09-13T09:37:24.292Z,6.37
2022-09-13T09:39:54.757Z,7.33
2022-09-13T09:42:26.281Z,8.77
2022-09-13T09:44:57.203Z,8.87
2022-09-13T09:47:30.214Z,8.50
2022-09-13T09:50:13.106Z,8.90
2022-09-13T09:52:50.289Z,5.70
2022-09-13T09:55:26.797Z,7.77
2022-09-13T09:57:57.663Z,4.90
2022-09-13T10:00:28.397Z,4.93
2022-09-13T10:03:01.187Z,6.47
2022-09-13T10:05:30.320Z,6.60
2022-09-13T10:08:02.891Z,5.40
2022-09-13T10:10:42.419Z,6.50
2022-09-13T10:13:17.238Z,6.93
2022-09-13T10:15:55.310Z,8.73
2022-09-13T10:18:43.537Z,4.50
2022-09-13T10:21:25.820Z,9.37
2022-09-13T10:24:14.436Z,6.20
2022-09-13T10:26:42.954Z,12.33
2022-09-13T10:29:17.660Z,5.20
2022-09-13T10:31:49.984Z,5.90
2022-09-13T10:34:23.747Z,8.33
2022-09-13T10:36:58.030Z,3.60
2022-09-13T10:39:28.025Z,13.80
2022-09-13T10:41:58.125Z,7.53
2022-09-13T10:44:34.003Z,5.10
2022-09-13T10:47:05.681Z,5.77
2022-09-13T10:49:40.470Z,4.30
2022-09-13T10:52:34.495Z,6.43
2022-09-13T10:55:32.224Z,6.67
2022-09-13T10:58:27.539Z,17.53
2022-09-13T11:01:40.602Z,4.47
2022-09-13T11:04:38.161Z,4.77
2022-09-13T11:07:29.420Z,4.90
2022-09-13T11:10:03.883Z,6.13
2022-09-13T11:12:42.445Z,5.37
2022-09-13T11:15:24.192Z,4.47
2022-09-13T11:18:34.699Z,4.53
2022-09-13T11:21:15.291Z,6.07
2022-09-13T11:24:01.457Z,7.27
2022-09-13T11:26:39.463Z,4.97
2022-09-13T11:29:20.967Z,4.57
2022-09-13T11:31:59.343Z,5.97
2022-09-13T11:34:39.634Z,4.67
2022-09-13T11:37:26.225Z,5.67
2022-09-13T11:40:09.837Z,4.93
2022-09-13T11:42:49.634Z,3.27
2022-09-13T11:45:25.065Z,3.97
2022-09-13T11:48:23.242Z,4.63
2022-09-13T11:51:01.867Z,4.80
2022-09-13T11:54:06.829Z,4.17
2022-09-13T11:56:40.370Z,4.27
2022-09-13T11:59:19.973Z,4.17
2022-09-13T12:01:55.660Z,4.93
2022-09-13T12:04:33.092Z,3.70
2022-09-13T12:07:05.734Z,10.40
2022-09-13T12:09:38.170Z,3.97
2022-09-13T12:12:11.883Z,8.20
2022-09-13T12:14:47.303Z,3.63
2022-09-13T12:17:26.706Z,2.97
2022-09-13T12:19:59.126Z,3.50
2022-09-13T12:22:31.726Z,3.23
2022-09-13T12:25:05.962Z,3.33
2022-09-13T12:27:40.630Z,3.90
2022-09-13T12:30:16.562Z,3.97
2022-09-13T12:32:47.145Z,6.80
2022-09-13T12:35:25.173Z,16.20
2022-09-13T12:38:13.626Z,4.00
2022-09-13T12:41:16.153Z,8.70
2022-09-13T12:44:10.064Z,10.00
2022-09-13T12:46:56.494Z,3.87
2022-09-13T12:49:41.628Z,5.30
2022-09-13T12:52:33.009Z,6.07
2022-09-13T12:55:46.134Z,2.77
2022-09-13T12:58:43.919Z,3.67
2022-09-13T13:01:18.227Z,3.60
2022-09-13T13:03:53.043Z,4.17
2022-09-13T13:06:33.475Z,3.13
2022-09-13T13:09:05.764Z,5.27
2022-09-13T13:11:45.741Z,3.30
2022-09-13T13:14:44.224Z,5.27
2022-09-13T13:17:40.840Z,6.37
2022-09-13T13:20:40.965Z,2.80
2022-09-13T13:23:23.587Z,3.37
2022-09-13T13:26:01.380Z,8.87
2022-09-13T13:28:53.410Z,3.73
2022-09-13T13:31:39.697Z,5.00
2022-09-13T13:34:32.623Z,17.90
2022-09-13T13:37:04.248Z,3.27
2022-09-13T13:39:38.705Z,3.00
2022-09-13T13:42:23.605Z,11.47
2022-09-13T13:45:07.967Z,3.07
2022-09-13T13:48:21.273Z,5.30
2022-09-13T13:51:17.720Z,4.40
2022-09-13T13:53:49.863Z,9.10
2022-09-13T13:56:29.713Z,6.13
2022-09-13T13:59:07.904Z,4.77
2022-09-13T14:01:40.948Z,7.87
2022-09-13T14:04:42.403Z,6.10
2022-09-13T14:07:29.388Z,9.90
2022-09-13T14:10:04.373Z,4.60
2022-09-13T14:12:44.672Z,9.70
2022-09-13T14:15:28.263Z,4.23
2022-09-13T14:18:36.761Z,6.13
2022-09-13T14:21:18.552Z,4.57
2022-09-13T14:23:48.355Z,7.30
2022-09-13T14:26:17.337Z,3.33
2022-09-13T14:28:45.846Z,8.73
2022-09-13T14:31:20.901Z,3.10
2022-09-13T14:33:49.432Z,2.23
2022-09-13T14:36:21.156Z,3.13
2022-09-13T14:38:55.565Z,12.47
2022-09-13T14:41:32.332Z,2.83
2022-09-13T14:44:23.767Z,7.57
2022-09-13T14:47:02.142Z,3.53
2022-09-13T14:49:36.365Z,3.33
2022-09-13T14:52:08.694Z,5.83
2022-09-13T14:54:41.706Z,6.97
2022-09-13T14:57:24.154Z,4.47
2022-09-13T14:59:55.692Z,8.40
2022-09-13T15:02:26.822Z,2.47
2022-09-13T15:04:57.709Z,2.80
2022-09-13T15:07:32.622Z,3.90
2022-09-13T15:10:11.323Z,3.00
2022-09-13T15:12:50.207Z,4.43
2022-09-13T15:15:35.326Z,2.63
2022-09-13T15:18:07.508Z,4.23
2022-09-13T15:20:52.420Z,2.73
2022-09-13T15:23:24.716Z,2.77
2022-09-13T15:25:56.658Z,4.20
2022-09-13T15:28:30.210Z,3.10
2022-09-13T15:31:01.264Z,4.50
2022-09-13T15:33:32.706Z,9.20
2022-09-13T15:36:30.295Z,6.90
2022-09-13T15:39:02.345Z,6.77
2022-09-13T15:41:34.043Z,9.30
2022-09-13T15:44:04.669Z,12.63
2022-09-13T15:46:33.763Z,7.60
2022-09-13T15:49:05.221Z,8.90
2022-09-13T15:51:39.093Z,15.93
2022-09-13T15:54:12.035Z,13.60
2022-09-13T15:56:45.039Z,16.47
2022-09-13T15:59:15.679Z,14.77
2022-09-13T16:01:45.249Z,22.67
2022-09-13T16:04:14.154Z,17.53
2022-09-13T16:06:43.039Z,7.40
2022-09-13T16:09:19.519Z,5.00
2022-09-13T16:11:50.810Z,7.37
2022-09-13T16:14:20.206Z,4.57
2022-09-13T16:16:49.900Z,15.30
2022-09-13T16:19:21.133Z,15.73
2022-09-13T16:21:50.084Z,3.57
2022-09-13T16:24:18.750Z,8.27
2022-09-13T16:26:48.533Z,6.23
2022-09-13T16:29:17.006Z,3.20
2022-09-13T16:31:45.633Z,5.03
2022-09-13T16:34:14.116Z,5.30
2022-09-13T16:36:42.802Z,2.57
2022-09-13T16:39:11.358Z,3.10
2022-09-13T16:41:41.342Z,2.50
2022-09-13T16:44:11.308Z,3.30
2022-09-13T16:46:40.578Z,7.93
2022-09-13T16:49:09.115Z,5.60
2022-09-13T16:51:37.908Z,3.53
2022-09-13T16:54:06.957Z,3.60
2022-09-13T16:56:35.747Z,2.70
2022-09-13T16:59:04.592Z,4.93
2022-09-13T17:01:34.626Z,11.17
2022-09-13T17:04:03.779Z,3.40
2022-09-13T17:06:32.215Z,14.13
2022-09-13T17:09:02.247Z,22.03
2022-09-13T17:11:33.187Z,9.70
2022-09-13T17:14:03.185Z,34.47
2022-09-13T17:16:37.258Z,27.53
2022-09-13T17:19:09.462Z,13.23
2022-09-13T17:21:38.046Z,7.67
2022-09-13T17:24:11.359Z,16.60
2022-09-13T17:26:42.765Z,12.43
2022-09-13T17:29:12.583Z,11.77
2022-09-13T17:31:43.815Z,5.50
2022-09-13T17:34:12.916Z,13.00
2022-09-13T17:36:42.179Z,22.63
2022-09-13T17:39:11.012Z,15.63
2022-09-13T17:41:39.826Z,18.10
2022-09-13T17:44:08.823Z,17.03
2022-09-13T17:46:37.574Z,21.53
2022-09-13T17:49:07.591Z,17.53
2022-09-13T17:51:36.681Z,21.97
2022-09-13T17:54:07.600Z,19.20
2022-09-13T17:56:37.947Z,21.23
2022-09-13T17:59:10.242Z,83.67
2022-09-13T18:01:41.319Z,101.37
2022-09-13T18:04:11.810Z,92.80
2022-09-13T18:06:42.716Z,96.40
2022-09-13T18:09:12.005Z,136.17
2022-09-13T18:11:41.440Z,65.03
2022-09-13T18:14:13.484Z,62.87
2022-09-13T18:16:42.547Z,14.03
2022-09-13T18:19:13.276Z,7.80
2022-09-13T18:21:42.056Z,73.97
2022-09-13T18:24:10.902Z,81.73
2022-09-13T18:26:39.589Z,96.07
2022-09-13T18:29:11.215Z,33.03
2022-09-13T18:31:41.639Z,19.70
2022-09-13T18:34:14.690Z,27.50
2022-09-13T18:36:43.468Z,11.60
2022-09-13T18:39:17.565Z,4.87
2022-09-13T18:41:48.384Z,7.93
2022-09-13T18:44:18.189Z,13.00
2022-09-13T18:46:47.459Z,4.23
2022-09-13T18:49:18.468Z,7.67
2022-09-13T18:51:48.733Z,9.53
2022-09-13T18:54:18.944Z,5.60
2022-09-13T18:56:51.179Z,9.47
2022-09-13T18:59:19.895Z,6.37
2022-09-13T19:01:48.984Z,6.17
2022-09-13T19:04:21.027Z,6.10
2022-09-13T19:06:51.467Z,4.03
2022-09-13T19:09:22.779Z,10.00
2022-09-13T19:11:54.077Z,21.37
2022-09-13T19:14:25.440Z,18.17
2022-09-13T19:16:56.400Z,9.40
2022-09-13T19:19:26.380Z,4.37
2022-09-13T19:21:55.226Z,5.23
2022-09-13T19:24:23.914Z,5.60
2022-09-13T19:26:53.683Z,9.70
2022-09-13T19:29:23.451Z,4.83
2022-09-13T19:31:53.372Z,9.90
2022-09-13T19:34:23.329Z,7.50
2022-09-13T19:36:58.370Z,5.13
2022-09-13T19:39:37.031Z,5.67
2022-09-13T19:42:05.650Z,5.20
2022-09-13T19:44:34.098Z,10.97
2022-09-13T19:49:52.682Z,7.13
2022-09-13T19:52:22.559Z,6.40
2022-09-13T19:54:51.798Z,6.60
2022-09-13T19:57:20.378Z,5.13
2022-09-13T19:59:48.857Z,6.03
2022-09-13T20:02:17.334Z,18.60
2022-09-13T20:04:48.698Z,13.40
2022-09-13T20:07:17.276Z,13.90
2022-09-13T20:09:47.622Z,11.70
2022-09-13T20:12:16.545Z,10.33
2022-09-13T20:14:45.041Z,7.33
2022-09-13T20:17:13.509Z,10.80
2022-09-13T20:19:46.354Z,9.00
2022-09-13T20:22:17.651Z,9.80
2022-09-13T20:24:47.621Z,9.13
2022-09-13T20:27:16.103Z,6.93
2022-09-13T20:29:44.558Z,12.10
2022-09-13T20:32:13.207Z,5.87
2022-09-13T20:34:41.835Z,7.13
2022-09-13T20:37:10.495Z,6.60
2022-09-13T20:39:39.252Z,11.80
2022-09-13T20:42:09.344Z,6.80
2022-09-13T20:44:40.319Z,41.57
2022-09-13T20:47:08.840Z,9.27
2022-09-13T20:49:37.448Z,10.97
2022-09-13T20:52:06.251Z,6.83
2022-09-13T20:54:34.759Z,6.60
2022-09-13T20:57:03.240Z,5.43
2022-09-13T20:59:33.093Z,18.70
2022-09-13T21:02:02.903Z,5.60
2022-09-13T21:04:32.383Z,6.53
2022-09-13T21:07:18.348Z,6.13
2022-09-13T21:09:46.880Z,7.50
2022-09-13T21:12:15.598Z,24.70
2022-09-13T21:14:46.367Z,10.50
2022-09-13T21:17:14.886Z,8.57
2022-09-13T21:19:43.378Z,9.37
2022-09-13T21:22:11.895Z,11.83
2022-09-13T21:24:40.340Z,7.73
2022-09-13T21:27:08.784Z,8.23
2022-09-13T21:29:37.196Z,15.57
2022-09-13T21:32:07.508Z,10.23
2022-09-13T21:34:35.975Z,20.47
2022-09-13T21:37:04.443Z,6.70
2022-09-13T21:39:32.918Z,7.10
2022-09-13T21:42:01.824Z,7.83
2022-09-13T21:44:30.955Z,9.83
2022-09-13T21:46:59.426Z,12.00
2022-09-13T21:49:29.254Z,11.90
2022-09-13T21:51:57.687Z,7.07
2022-09-13T21:54:26.146Z,12.83
2022-09-13T21:56:55.451Z,15.43
2022-09-13T21:59:24.904Z,11.60
2022-09-13T22:01:54.905Z,9.70
2022-09-13T22:04:25.275Z,9.30
2022-09-13T22:06:55.600Z,7.97
2022-09-13T22:09:26.925Z,11.60
2022-09-13T22:11:56.417Z,8.97
2022-09-13T22:14:24.884Z,9.23
2022-09-13T22:16:53.896Z,13.50
2022-09-13T22:19:24.395Z,15.60
2022-09-13T22:21:58.866Z,14.93
2022-09-13T22:24:29.381Z,25.47
2022-09-13T22:26:59.013Z,14.03
2022-09-13T22:29:27.708Z,9.03
2022-09-13T22:31:56.664Z,10.07
2022-09-13T22:34:30.599Z,9.03
2022-09-13T22:37:00.487Z,8.17
2022-09-13T22:39:28.999Z,11.40
2022-09-13T22:41:57.478Z,10.57
2022-09-13T22:44:25.874Z,13.90
2022-09-13T22:46:54.637Z,8.77
2022-09-13T22:49:23.103Z,10.20
2022-09-13T22:51:51.553Z,13.83
2022-09-13T22:54:21.600Z,13.83
2022-09-13T22:56:50.024Z,11.50
2022-09-13T22:59:20.988Z,14.63
2022-09-13T23:01:49.970Z,12.50
2022-09-13T23:04:18.478Z,10.03
2022-09-13T23:06:47.166Z,11.70
2022-09-13T23:09:18.534Z,12.07
2022-09-13T23:11:48.958Z,12.00
2022-09-13T23:14:19.984Z,9.70
2022-09-13T23:16:51.144Z,16.83
2022-09-13T23:19:21.852Z,16.10
2022-09-13T23:21:50.390Z,15.13
2022-09-13T23:24:19.660Z,8.70
2022-09-13T23:26:50.008Z,14.20
2022-09-13T23:29:20.668Z,12.37
2022-09-13T23:31:49.694Z,13.23
2022-09-13T23:34:18.872Z,11.43
2022-09-13T23:36:48.030Z,11.57
2022-09-13T23:39:18.112Z,13.80
2022-09-13T23:41:48.584Z,11.90
2022-09-13T23:44:17.777Z,19.60
2022-09-13T23:46:46.435Z,17.00
2022-09-13T23:49:15.057Z,10.23
2022-09-13T23:51:43.867Z,19.63
2022-09-13T23:54:13.377Z,12.30
2022-09-13T23:56:41.952Z,12.97
2022-09-13T23:59:13.007Z,15.30
